Terminal Aerodrome Forecast
Issued by NWS

Home | Current Version | Previous Version | Text Only | Print | Product List | Glossary On
Versions: 1 2 3 4 5 6 7 8 9 10 11 12 13 14 15
106
FTUS42 TJSJ 260531
TAFJBQ
TAF
TJBQ 260531Z 2606/2706 09012KT P6SM VCSH SCT023 SCT035 SCT070
     FM261300 08015KT P6SM VCSH SCT025 SCT035
     FM261600 08015G21KT P6SM VCTS SCT025CB BKN035
     FM262300 10008KT P6SM FEW025 SCT035
      AMD NOT SKED TIL 261100=

USA.gov is the U.S. government's official web portal to all federal, state and local government web resources and services.